Robert G. Stone, Jr. — WDD4596 — position and weather

sailwx.info

Track history (hours):
 
Tides and Currents Weather Stations Pressure Air Temp Water Temp Dewpoint Dewpoint Depression Visibility Wind Speed Wind Dir Waves Ship Positions

Robert G. Stone, Jr.

Owner: Kirby Inland Marine, LP, Houston, TX. More information available from US FCC via Universal Licensing System and Coast Guard Vessel Documentation Center.

Last reported at 2018-Feb-09 07:00 UTC. Time now 2018-Feb-25 18:16 UTC.
Position N 29°35' W 090°36'.
Warning: this ship's position is 16 days out of date.

Length 210 m; draft 2.8 m.

Type: . MMSI: 367146780.

Date/timePositionNaut miles runAvg speedWind from/ knotsBaromVisibWave heightAir tempDewpointWater temp
2018-Feb-09 07:00N 29°35' W 090°36'2 3.9
2018-Feb-09 06:30N 29°35' W 090°38'4 4.3
2018-Feb-09 05:30N 29°37' W 090°42'2 3.9
2018-Feb-09 05:00N 29°35' W 090°43'3 2.6
2018-Feb-09 04:00N 29°33' W 090°45'1 1.2
2018-Feb-09 03:30N 29°32' W 090°46'1 1.8
2018-Feb-09 03:00N 29°32' W 090°47'2 3.6
2018-Feb-09 02:30N 29°32' W 090°49'  
2018-Feb-06 10:31N 29°48' W 092°06'0 5.4
2018-Feb-06 10:29N 29°48' W 092°06'3 5.6
2018-Feb-06 09:59N 29°47' W 092°09'3 5.1
2018-Feb-06 09:29N 29°47' W 092°12'3 5.8
2018-Feb-06 08:59N 29°48' W 092°15'3 5.2
2018-Feb-06 08:27N 29°50' W 092°18'67 3.7
2018-Feb-05 14:05N 30°04' W 093°34'1 4.9
2018-Feb-05 13:54N 30°04' W 093°35'2 5.1
2018-Feb-05 13:28N 30°04' W 093°38'2 5.1
2018-Feb-05 13:00N 30°04' W 093°40'3 5.1
2018-Feb-05 12:30N 30°03' W 093°43'3 5.3
2018-Feb-05 12:00N 30°01' W 093°45'3 5.3
2018-Feb-05 11:30N 29°59' W 093°48'3 6.3
2018-Feb-05 11:00N 29°58' W 093°51'3 6.5
2018-Feb-05 10:30N 29°55' W 093°53'3 6.4
2018-Feb-05 10:00N 29°53' W 093°55'3 6.6
2018-Feb-05 09:30N 29°50' W 093°57'2 4.7
2018-Feb-05 09:00N 29°49' W 093°59'3 6.1
2018-Feb-05 08:30N 29°47' W 094°02'3 6.4
2018-Feb-05 08:00N 29°45' W 094°05'3 6.3
2018-Feb-05 07:30N 29°43' W 094°08'3 5.7
2018-Feb-05 07:00N 29°41' W 094°10'2 5.0
2018-Feb-05 06:30N 29°40' W 094°13'5 5.3
2018-Feb-05 05:30N 29°38' W 094°19'3 5.3
2018-Feb-05 05:00N 29°37' W 094°21'2 4.8
2018-Feb-05 04:30N 29°36' W 094°24'2 4.5
2018-Feb-05 04:00N 29°34' W 094°25'  
2018-Feb-02 07:33N 29°35' W 094°25'0 0.0
2018-Feb-02 07:04N 29°35' W 094°25'0 0.0
2018-Feb-02 06:59N 29°35' W 094°25'0 0.0
2018-Feb-02 04:42N 29°35' W 094°25'0 0.0
2018-Feb-02 04:01N 29°35' W 094°25'0 0.0
2018-Feb-02 04:00N 29°35' W 094°25'0 0.0
2018-Feb-02 03:15N 29°35' W 094°25'0 0.1
2018-Feb-02 03:00N 29°35' W 094°25'2 3.0
2018-Feb-02 02:31N 29°36' W 094°23'3 5.9
2018-Feb-02 02:00N 29°37' W 094°20'4 6.9
2018-Feb-02 01:29N 29°39' W 094°17'4 7.2
2018-Feb-02 01:00N 29°40' W 094°13'3 7.0
2018-Feb-02 00:30N 29°42' W 094°09'4 7.4
2018-Feb-02 00:00N 29°44' W 094°06'4 7.5
2018-Feb-01 23:30N 29°46' W 094°03'4 7.4
2018-Feb-01 23:00N 29°49' W 093°60'7 6.5
2018-Feb-01 22:00N 29°54' W 093°55'3 6.8
2018-Feb-01 21:31N 29°56' W 093°52'13 6.6
2018-Feb-01 19:30N 30°04' W 093°39'3 6.1
2018-Feb-01 19:01N 30°04' W 093°36'3 6.5
2018-Feb-01 18:30N 30°04' W 093°32'3 6.3
2018-Feb-01 18:00N 30°04' W 093°28'3 5.9
2018-Feb-01 17:31N 30°04' W 093°25'3 5.8
2018-Feb-01 17:01N 30°04' W 093°22'3 5.2
2018-Feb-01 16:31N 30°05' W 093°20'1 2.4
2018-Feb-01 16:00N 30°06' W 093°18'0 0.0
2018-Feb-01 15:31N 30°06' W 093°18'0 0.0
2018-Feb-01 15:00N 30°06' W 093°18'0 0.0
2018-Feb-01 13:31N 30°06' W 093°18'2 3.4
2018-Feb-01 13:00N 30°05' W 093°17'1 1.8
2018-Feb-01 12:30N 30°04' W 093°16'2 3.6
2018-Feb-01 12:00N 30°02' W 093°16'4 4.0
2018-Feb-01 11:01N 29°59' W 093°13'3 5.1
2018-Feb-01 10:31N 29°57' W 093°11'3 5.6
2018-Feb-01 10:00N 29°56' W 093°08'3 5.9
2018-Feb-01 09:30N 29°56' W 093°05'3 5.5
2018-Feb-01 08:57N 29°56' W 093°01'3 5.4
2018-Feb-01 08:19N 29°56' W 092°57'2 2.3
2018-Feb-01 07:16N 29°56' W 092°54'1 1.7
2018-Feb-01 06:30N 29°57' W 092°53'31 4.1
2018-Jan-31 22:59N 29°50' W 092°18'3 5.7
2018-Jan-31 22:29N 29°48' W 092°16'8 5.5
2018-Jan-31 21:00N 29°48' W 092°06'3 6.4
2018-Jan-31 20:31N 29°49' W 092°03'  
Track history (hours):
 
Tides and Currents Weather Stations Pressure Air Temp Water Temp Dewpoint Dewpoint Depression Visibility Wind Speed Wind Dir Waves Ship Positions

Robert G. Stone, Jr.

Owner: Kirby Inland Marine, LP, Houston, TX. More information available from US FCC via Universal Licensing System and Coast Guard Vessel Documentation Center.

Last reported at 2018-Feb-09 07:00 UTC. Time now 2018-Feb-25 18:16 UTC.
Position N 29°35' W 090°36'.
Warning: this ship's position is 16 days out of date.

Length 210 m; draft 2.8 m.

Type: . MMSI: 367146780.

Date/timePositionNaut miles runAvg speedWind from/ knotsBaromVisibWave heightAir tempDewpointWater temp
2018-Feb-09 07:00N 29°35' W 090°36'2 3.9
2018-Feb-09 06:30N 29°35' W 090°38'4 4.3
2018-Feb-09 05:30N 29°37' W 090°42'2 3.9
2018-Feb-09 05:00N 29°35' W 090°43'3 2.6
2018-Feb-09 04:00N 29°33' W 090°45'1 1.2
2018-Feb-09 03:30N 29°32' W 090°46'1 1.8
2018-Feb-09 03:00N 29°32' W 090°47'2 3.6
2018-Feb-09 02:30N 29°32' W 090°49'  
2018-Feb-06 10:31N 29°48' W 092°06'0 5.4
2018-Feb-06 10:29N 29°48' W 092°06'3 5.6
2018-Feb-06 09:59N 29°47' W 092°09'3 5.1
2018-Feb-06 09:29N 29°47' W 092°12'3 5.8
2018-Feb-06 08:59N 29°48' W 092°15'3 5.2
2018-Feb-06 08:27N 29°50' W 092°18'67 3.7
2018-Feb-05 14:05N 30°04' W 093°34'1 4.9
2018-Feb-05 13:54N 30°04' W 093°35'2 5.1
2018-Feb-05 13:28N 30°04' W 093°38'2 5.1
2018-Feb-05 13:00N 30°04' W 093°40'3 5.1
2018-Feb-05 12:30N 30°03' W 093°43'3 5.3
2018-Feb-05 12:00N 30°01' W 093°45'3 5.3
2018-Feb-05 11:30N 29°59' W 093°48'3 6.3
2018-Feb-05 11:00N 29°58' W 093°51'3 6.5
2018-Feb-05 10:30N 29°55' W 093°53'3 6.4
2018-Feb-05 10:00N 29°53' W 093°55'3 6.6
2018-Feb-05 09:30N 29°50' W 093°57'2 4.7
2018-Feb-05 09:00N 29°49' W 093°59'3 6.1
2018-Feb-05 08:30N 29°47' W 094°02'3 6.4
2018-Feb-05 08:00N 29°45' W 094°05'3 6.3
2018-Feb-05 07:30N 29°43' W 094°08'3 5.7
2018-Feb-05 07:00N 29°41' W 094°10'2 5.0
2018-Feb-05 06:30N 29°40' W 094°13'5 5.3
2018-Feb-05 05:30N 29°38' W 094°19'3 5.3
2018-Feb-05 05:00N 29°37' W 094°21'2 4.8
2018-Feb-05 04:30N 29°36' W 094°24'2 4.5
2018-Feb-05 04:00N 29°34' W 094°25'  
2018-Feb-02 07:33N 29°35' W 094°25'0 0.0
2018-Feb-02 07:04N 29°35' W 094°25'0 0.0
2018-Feb-02 06:59N 29°35' W 094°25'0 0.0
2018-Feb-02 04:42N 29°35' W 094°25'0 0.0
2018-Feb-02 04:01N 29°35' W 094°25'0 0.0
2018-Feb-02 04:00N 29°35' W 094°25'0 0.0
2018-Feb-02 03:15N 29°35' W 094°25'0 0.1
2018-Feb-02 03:00N 29°35' W 094°25'2 3.0
2018-Feb-02 02:31N 29°36' W 094°23'3 5.9
2018-Feb-02 02:00N 29°37' W 094°20'4 6.9
2018-Feb-02 01:29N 29°39' W 094°17'4 7.2
2018-Feb-02 01:00N 29°40' W 094°13'3 7.0
2018-Feb-02 00:30N 29°42' W 094°09'4 7.4
2018-Feb-02 00:00N 29°44' W 094°06'4 7.5
2018-Feb-01 23:30N 29°46' W 094°03'4 7.4
2018-Feb-01 23:00N 29°49' W 093°60'7 6.5
2018-Feb-01 22:00N 29°54' W 093°55'3 6.8
2018-Feb-01 21:31N 29°56' W 093°52'13 6.6
2018-Feb-01 19:30N 30°04' W 093°39'3 6.1
2018-Feb-01 19:01N 30°04' W 093°36'3 6.5
2018-Feb-01 18:30N 30°04' W 093°32'3 6.3
2018-Feb-01 18:00N 30°04' W 093°28'3 5.9
2018-Feb-01 17:31N 30°04' W 093°25'3 5.8
2018-Feb-01 17:01N 30°04' W 093°22'3 5.2
2018-Feb-01 16:31N 30°05' W 093°20'1 2.4
2018-Feb-01 16:00N 30°06' W 093°18'0 0.0
2018-Feb-01 15:31N 30°06' W 093°18'0 0.0
2018-Feb-01 15:00N 30°06' W 093°18'0 0.0
2018-Feb-01 13:31N 30°06' W 093°18'2 3.4
2018-Feb-01 13:00N 30°05' W 093°17'1 1.8
2018-Feb-01 12:30N 30°04' W 093°16'2 3.6
2018-Feb-01 12:00N 30°02' W 093°16'4 4.0
2018-Feb-01 11:01N 29°59' W 093°13'3 5.1
2018-Feb-01 10:31N 29°57' W 093°11'3 5.6
2018-Feb-01 10:00N 29°56' W 093°08'3 5.9
2018-Feb-01 09:30N 29°56' W 093°05'3 5.5
2018-Feb-01 08:57N 29°56' W 093°01'3 5.4
2018-Feb-01 08:19N 29°56' W 092°57'2 2.3
2018-Feb-01 07:16N 29°56' W 092°54'1 1.7
2018-Feb-01 06:30N 29°57' W 092°53'31 4.1
2018-Jan-31 22:59N 29°50' W 092°18'3 5.7
2018-Jan-31 22:29N 29°48' W 092°16'8 5.5
2018-Jan-31 21:00N 29°48' W 092°06'3 6.4
2018-Jan-31 20:31N 29°49' W 092°03'  

Dump ship's entire track history